createdAt,value
2022-10-18T00:00:06.427Z,5.23
2022-10-18T00:02:33.119Z,5.15
2022-10-18T00:04:59.748Z,5.02
2022-10-18T00:07:26.384Z,5.10
2022-10-18T00:09:53.013Z,4.88
2022-10-18T00:12:19.640Z,4.96
2022-10-18T00:14:50.029Z,5.02
2022-10-18T00:17:16.956Z,5.03
2022-10-18T00:19:43.864Z,4.90
2022-10-18T00:22:10.461Z,4.95
2022-10-18T00:24:37.061Z,4.87
2022-10-18T00:27:03.711Z,4.80
2022-10-18T00:29:30.292Z,4.56
2022-10-18T00:31:56.907Z,4.68
2022-10-18T00:34:23.543Z,4.62
2022-10-18T00:36:50.168Z,4.72
2022-10-18T00:39:20.234Z,4.77
2022-10-18T00:41:47.783Z,4.38
2022-10-18T00:44:14.303Z,4.62
2022-10-18T00:46:44.316Z,4.63
2022-10-18T00:49:12.983Z,4.87
2022-10-18T00:51:48.715Z,4.95
2022-10-18T00:54:17.229Z,4.84
2022-10-18T00:56:45.024Z,4.98
2022-10-18T00:59:15.269Z,4.72
2022-10-18T01:01:42.044Z,4.75
2022-10-18T01:04:08.868Z,4.83
2022-10-18T01:06:47.198Z,4.73
2022-10-18T01:09:32.348Z,4.84
2022-10-18T01:12:18.214Z,4.81
2022-10-18T01:14:50.761Z,4.87
2022-10-18T01:17:24.485Z,4.89
2022-10-18T01:20:13.673Z,4.93
2022-10-18T01:22:48.112Z,5.06
2022-10-18T01:25:30.554Z,5.16
2022-10-18T01:28:34.404Z,5.29
2022-10-18T01:31:10.729Z,5.41
2022-10-18T01:33:51.144Z,5.57
2022-10-18T01:36:36.169Z,5.57
2022-10-18T01:39:07.625Z,5.67
2022-10-18T01:41:38.670Z,5.76
2022-10-18T01:44:08.492Z,5.86
2022-10-18T01:46:37.376Z,5.69
2022-10-18T01:49:04.581Z,5.73
2022-10-18T01:51:33.108Z,6.05
2022-10-18T01:54:00.500Z,6.03
2022-10-18T01:56:42.697Z,6.13
2022-10-18T01:59:15.381Z,6.20
2022-10-18T02:02:00.540Z,6.22
2022-10-18T02:04:34.909Z,6.20
2022-10-18T02:07:26.834Z,6.00
2022-10-18T02:10:35.121Z,6.07
2022-10-18T02:13:02.795Z,5.95
2022-10-18T02:15:39.847Z,5.85
2022-10-18T02:18:11.291Z,5.90
2022-10-18T02:20:39.123Z,5.78
2022-10-18T02:23:08.381Z,5.33
2022-10-18T02:25:36.195Z,5.38
2022-10-18T02:28:04.357Z,5.47
2022-10-18T02:30:41.034Z,5.31
2022-10-18T02:33:20.302Z,5.28
2022-10-18T02:36:03.957Z,5.22
2022-10-18T02:38:32.384Z,5.21
2022-10-18T02:40:59.736Z,5.17
2022-10-18T02:43:26.933Z,4.98
2022-10-18T02:45:53.697Z,5.14
2022-10-18T02:48:20.367Z,5.23
2022-10-18T02:50:47.028Z,5.01
2022-10-18T02:53:13.610Z,4.93
2022-10-18T02:55:40.188Z,4.81
2022-10-18T02:58:06.857Z,4.73
2022-10-18T03:00:33.432Z,4.84
2022-10-18T03:03:00.052Z,4.53
2022-10-18T03:05:26.653Z,4.63
2022-10-18T03:07:53.284Z,4.58
2022-10-18T03:10:19.956Z,4.39
2022-10-18T03:12:46.599Z,4.50
2022-10-18T03:15:13.215Z,4.27
2022-10-18T03:17:39.792Z,4.17
2022-10-18T03:20:07.093Z,4.10
2022-10-18T03:22:33.710Z,4.01
2022-10-18T03:25:00.326Z,3.85
2022-10-18T03:27:27.008Z,4.07
2022-10-18T03:29:53.612Z,3.87
2022-10-18T03:32:20.201Z,3.62
2022-10-18T03:34:46.792Z,3.55
2022-10-18T03:37:13.428Z,3.70
2022-10-18T03:39:40.037Z,3.59
2022-10-18T03:42:06.627Z,3.47
2022-10-18T03:44:33.203Z,3.65
2022-10-18T03:46:59.852Z,3.45
2022-10-18T03:49:26.505Z,3.56
2022-10-18T03:51:53.152Z,3.40
2022-10-18T03:54:19.841Z,3.29
2022-10-18T03:56:46.508Z,3.26
2022-10-18T03:59:13.684Z,2.95
2022-10-18T04:01:40.355Z,3.07
2022-10-18T04:04:07.036Z,3.18
2022-10-18T04:06:33.657Z,3.11
2022-10-18T04:09:00.273Z,3.33
2022-10-18T04:11:26.906Z,3.06
2022-10-18T04:13:53.489Z,3.08
2022-10-18T04:16:20.134Z,2.86
2022-10-18T04:18:46.777Z,3.06
2022-10-18T04:21:13.401Z,2.72
2022-10-18T04:23:40.027Z,2.87
2022-10-18T04:26:07.601Z,2.97
2022-10-18T04:28:35.428Z,3.02
2022-10-18T04:31:02.186Z,3.05
2022-10-18T04:33:28.837Z,3.17
2022-10-18T04:35:55.420Z,3.31
2022-10-18T04:38:22.068Z,3.13
2022-10-18T04:40:48.747Z,3.60
2022-10-18T04:43:15.821Z,3.57
2022-10-18T04:45:45.460Z,3.79
2022-10-18T04:48:12.487Z,3.60
2022-10-18T04:50:39.122Z,3.60
2022-10-18T04:53:05.703Z,3.93
2022-10-18T04:55:32.356Z,4.01
2022-10-18T04:57:58.937Z,4.30
2022-10-18T05:00:25.761Z,4.70
2022-10-18T05:02:58.747Z,4.58
2022-10-18T05:05:33.139Z,4.81
2022-10-18T05:08:12.915Z,4.81
2022-10-18T05:10:39.657Z,4.84
2022-10-18T05:13:06.348Z,4.74
2022-10-18T05:15:32.965Z,4.75
2022-10-18T05:17:59.651Z,4.82
2022-10-18T05:20:26.562Z,4.88
2022-10-18T05:22:53.157Z,4.93
2022-10-18T05:25:19.791Z,4.99
2022-10-18T05:27:46.472Z,5.13
2022-10-18T05:30:13.213Z,5.22
2022-10-18T05:32:39.788Z,5.30
2022-10-18T05:35:06.988Z,5.40
2022-10-18T05:37:33.709Z,5.37
2022-10-18T05:40:00.326Z,5.54
2022-10-18T05:42:26.923Z,5.58
2022-10-18T05:44:53.549Z,5.63
2022-10-18T05:47:20.146Z,5.72
2022-10-18T05:49:47.797Z,5.69
2022-10-18T05:52:14.462Z,5.93
2022-10-18T05:54:41.060Z,5.87
2022-10-18T05:57:07.652Z,6.11
2022-10-18T05:59:34.316Z,6.00
2022-10-18T06:02:00.901Z,6.24
2022-10-18T06:04:27.473Z,6.28
2022-10-18T06:06:55.991Z,6.39
2022-10-18T06:09:22.740Z,6.44
2022-10-18T06:11:49.332Z,6.54
2022-10-18T06:14:15.936Z,6.43
2022-10-18T06:16:42.536Z,6.75
2022-10-18T06:19:09.124Z,6.77
2022-10-18T06:21:35.766Z,7.08
2022-10-18T06:24:02.384Z,7.32
2022-10-18T06:26:29.039Z,7.34
2022-10-18T06:28:55.899Z,7.62
2022-10-18T06:31:22.677Z,8.01
2022-10-18T06:33:49.661Z,8.27
2022-10-18T06:36:19.157Z,8.55
2022-10-18T06:38:45.888Z,8.62
2022-10-18T06:41:12.627Z,8.88
2022-10-18T06:43:39.814Z,9.13
2022-10-18T06:46:08.185Z,9.11
2022-10-18T06:48:39.162Z,9.57
2022-10-18T06:51:07.269Z,9.81
2022-10-18T06:53:43.796Z,9.86
2022-10-18T06:56:20.138Z,9.93
2022-10-18T06:58:46.817Z,10.11
2022-10-18T07:01:18.426Z,10.50
2022-10-18T07:03:47.196Z,10.41
2022-10-18T07:06:16.493Z,10.70
2022-10-18T07:08:43.744Z,10.71
2022-10-18T07:11:16.225Z,10.79
2022-10-18T07:13:43.107Z,10.98
2022-10-18T07:16:18.307Z,10.86
2022-10-18T07:18:50.474Z,11.07
2022-10-18T07:21:19.938Z,11.32
2022-10-18T07:23:47.520Z,11.04
2022-10-18T07:26:17.243Z,11.43
2022-10-18T07:28:45.860Z,11.72
2022-10-18T07:31:13.483Z,11.40
2022-10-18T07:33:40.391Z,11.66
2022-10-18T07:36:09.154Z,12.26
2022-10-18T07:38:36.524Z,11.84
2022-10-18T07:41:06.691Z,12.53
2022-10-18T07:43:34.330Z,12.52
2022-10-18T07:46:04.435Z,12.93
2022-10-18T07:48:31.297Z,12.78
2022-10-18T07:50:59.738Z,12.84
2022-10-18T07:53:26.836Z,13.13
2022-10-18T07:55:57.379Z,13.07
2022-10-18T07:58:23.971Z,13.20
2022-10-18T08:00:50.540Z,13.24
2022-10-18T08:03:17.268Z,13.38
2022-10-18T08:05:43.899Z,13.53
2022-10-18T08:08:10.525Z,13.65
2022-10-18T08:10:37.219Z,13.92
2022-10-18T08:13:03.813Z,14.16
2022-10-18T08:15:30.388Z,13.94
2022-10-18T08:17:56.994Z,14.19
2022-10-18T08:20:30.849Z,14.19
2022-10-18T08:23:00.302Z,14.34
2022-10-18T08:25:28.324Z,14.69
2022-10-18T08:27:55.061Z,14.77
2022-10-18T08:30:23.370Z,14.67
2022-10-18T08:32:49.988Z,14.59
2022-10-18T08:35:16.664Z,14.93
2022-10-18T08:37:45.322Z,15.09
2022-10-18T08:40:15.727Z,15.48
2022-10-18T08:43:22.629Z,15.34
2022-10-18T08:45:51.063Z,15.69
2022-10-18T08:48:31.068Z,15.87
2022-10-18T08:50:58.494Z,15.88
2022-10-18T08:53:36.254Z,16.18
2022-10-18T08:56:21.194Z,16.25
2022-10-18T08:58:47.907Z,16.16
2022-10-18T09:04:52.472Z,16.34
2022-10-18T09:07:55.846Z,16.68
2022-10-18T09:10:52.172Z,16.71
2022-10-18T09:13:24.855Z,16.80
2022-10-18T09:16:15.300Z,17.02
2022-10-18T09:18:47.813Z,17.27
2022-10-18T09:21:17.320Z,17.39
2022-10-18T09:23:48.397Z,17.38
2022-10-18T09:26:19.920Z,17.51
2022-10-18T09:29:14.832Z,17.53
2022-10-18T09:31:53.809Z,17.48
2022-10-18T09:34:53.943Z,17.73
2022-10-18T09:37:21.639Z,17.85
2022-10-18T09:39:50.674Z,17.88
2022-10-18T09:42:38.172Z,17.57
2022-10-18T09:45:32.030Z,17.76
2022-10-18T09:48:09.673Z,17.73
2022-10-18T09:50:58.585Z,17.94
2022-10-18T09:53:46.279Z,18.06
2022-10-18T09:56:26.322Z,18.18
2022-10-18T09:58:52.989Z,18.26
2022-10-18T10:01:27.683Z,18.10
2022-10-18T10:03:54.634Z,18.20
2022-10-18T10:06:28.702Z,18.27
2022-10-18T10:09:08.030Z,18.44
2022-10-18T10:11:36.527Z,18.54
2022-10-18T10:14:27.533Z,18.31
2022-10-18T10:16:57.025Z,18.63
2022-10-18T10:19:28.144Z,18.49
2022-10-18T10:22:10.591Z,18.45
2022-10-18T10:24:39.880Z,18.47
2022-10-18T10:27:15.472Z,18.60
2022-10-18T10:29:52.297Z,18.77
2022-10-18T10:32:21.396Z,18.79
2022-10-18T10:34:48.321Z,18.76
2022-10-18T10:37:28.753Z,18.98
2022-10-18T10:40:23.973Z,18.98
2022-10-18T10:43:33.145Z,19.19
2022-10-18T10:46:15.103Z,19.27
2022-10-18T10:49:27.854Z,19.24
2022-10-18T10:52:02.456Z,19.30
2022-10-18T10:54:39.032Z,19.21
2022-10-18T10:57:23.329Z,18.95
2022-10-18T10:59:52.651Z,19.15
2022-10-18T11:02:37.801Z,19.38
2022-10-18T11:05:29.464Z,19.33
2022-10-18T11:07:59.565Z,19.55
2022-10-18T11:10:30.813Z,19.64
2022-10-18T11:13:31.483Z,19.73
2022-10-18T11:16:10.235Z,19.64
2022-10-18T11:18:38.247Z,19.62
2022-10-18T11:21:12.824Z,19.55
2022-10-18T11:23:42.172Z,19.81
2022-10-18T11:26:11.660Z,19.75
2022-10-18T11:28:47.499Z,19.76
2022-10-18T11:31:41.638Z,19.88
2022-10-18T11:34:39.041Z,19.80
2022-10-18T11:37:38.394Z,20.00
2022-10-18T11:40:28.343Z,19.87
2022-10-18T11:43:13.134Z,19.98
2022-10-18T11:45:48.778Z,19.76
2022-10-18T11:48:52.044Z,19.77
2022-10-18T11:51:56.388Z,19.84
2022-10-18T11:54:52.128Z,19.96
2022-10-18T11:57:42.739Z,19.83
2022-10-18T12:00:34.607Z,19.84
2022-10-18T12:03:37.695Z,19.99
2022-10-18T12:06:17.248Z,20.10
2022-10-18T12:08:59.597Z,20.00
2022-10-18T12:11:50.232Z,19.94
2022-10-18T12:14:27.364Z,20.16
2022-10-18T12:17:27.911Z,20.04
2022-10-18T12:19:47.022Z,19.98
2022-10-18T12:22:23.119Z,20.07
2022-10-18T12:24:49.727Z,19.83
2022-10-18T12:27:16.956Z,20.04
2022-10-18T12:29:58.113Z,19.92
2022-10-18T12:32:34.069Z,19.98
2022-10-18T12:35:15.344Z,19.83
2022-10-18T12:37:54.041Z,19.97
2022-10-18T12:40:26.151Z,20.02
2022-10-18T12:42:53.498Z,19.98
2022-10-18T12:45:25.189Z,20.15
2022-10-18T12:47:52.579Z,19.99
2022-10-18T12:50:40.533Z,19.33
2022-10-18T12:53:10.269Z,19.88
2022-10-18T12:58:16.043Z,19.82
2022-10-18T13:00:42.593Z,19.84
2022-10-18T13:03:09.146Z,19.91
2022-10-18T13:06:06.408Z,19.92
2022-10-18T13:08:42.249Z,19.78
2022-10-18T13:11:11.651Z,19.98
2022-10-18T13:14:02.232Z,19.96
2022-10-18T13:16:50.958Z,19.73
2022-10-18T13:20:20.560Z,19.48
2022-10-18T13:22:59.428Z,19.68
2022-10-18T13:25:34.598Z,19.77
2022-10-18T13:28:30.352Z,19.62
2022-10-18T13:31:19.592Z,19.62
2022-10-18T13:33:46.363Z,19.53
2022-10-18T13:36:22.879Z,19.63
2022-10-18T13:38:50.467Z,19.70
2022-10-18T13:41:18.596Z,19.51
2022-10-18T13:44:00.464Z,19.54
2022-10-18T13:46:33.192Z,19.71
2022-10-18T13:49:17.513Z,19.59
2022-10-18T13:52:14.534Z,19.44
2022-10-18T13:55:06.142Z,19.45
2022-10-18T13:57:57.076Z,19.31
2022-10-18T14:01:31.624Z,19.41
2022-10-18T14:04:24.176Z,19.29
2022-10-18T14:06:52.283Z,19.16
2022-10-18T14:09:40.450Z,19.01
2022-10-18T14:12:29.209Z,19.07
2022-10-18T14:15:17.198Z,19.06
2022-10-18T14:17:53.593Z,19.07
2022-10-18T14:20:49.133Z,19.19
2022-10-18T14:23:24.803Z,19.10
2022-10-18T14:25:51.654Z,18.74
2022-10-18T14:28:27.353Z,18.74
2022-10-18T14:31:12.777Z,18.61
2022-10-18T14:33:46.428Z,18.64
2022-10-18T14:36:26.566Z,18.58
2022-10-18T14:38:57.104Z,18.44
2022-10-18T14:41:29.041Z,18.42
2022-10-18T14:44:14.294Z,18.56
2022-10-18T14:46:52.877Z,18.52
2022-10-18T14:49:21.014Z,18.10
2022-10-18T14:51:51.629Z,18.40
2022-10-18T14:54:33.860Z,18.28
2022-10-18T14:57:02.261Z,18.18
2022-10-18T14:59:32.596Z,17.94
2022-10-18T15:02:03.203Z,17.77
2022-10-18T15:04:33.265Z,17.34
2022-10-18T15:07:07.833Z,17.33
2022-10-18T15:09:36.965Z,17.19
2022-10-18T15:12:05.936Z,17.15
2022-10-18T15:14:34.019Z,16.73
2022-10-18T15:17:07.515Z,16.88
2022-10-18T15:19:42.939Z,16.73
2022-10-18T15:25:05.683Z,16.39
2022-10-18T15:27:35.768Z,16.24
2022-10-18T15:30:34.533Z,16.12
2022-10-18T15:33:03.099Z,16.05
2022-10-18T15:35:35.712Z,15.70
2022-10-18T15:38:24.474Z,15.72
2022-10-18T15:40:51.136Z,15.01
2022-10-18T15:43:24.155Z,15.15
2022-10-18T15:46:05.345Z,14.72
2022-10-18T15:48:41.271Z,14.45
2022-10-18T15:51:18.906Z,14.27
2022-10-18T15:53:52.951Z,13.95
2022-10-18T15:56:35.935Z,13.82
2022-10-18T15:59:06.116Z,13.51
2022-10-18T16:01:42.380Z,13.46
2022-10-18T16:04:20.021Z,13.27
2022-10-18T16:06:46.703Z,13.13
2022-10-18T16:09:16.652Z,13.14
2022-10-18T16:11:43.409Z,12.90
2022-10-18T16:14:10.184Z,12.68
2022-10-18T16:16:36.975Z,12.51
2022-10-18T16:19:04.048Z,12.44
2022-10-18T16:21:31.876Z,11.99
2022-10-18T16:23:58.556Z,11.68
2022-10-18T16:26:26.101Z,11.85
2022-10-18T16:28:53.886Z,11.71
2022-10-18T16:31:23.012Z,11.36
2022-10-18T16:33:50.862Z,11.17
2022-10-18T16:36:31.451Z,11.27
2022-10-18T16:39:01.300Z,11.01
2022-10-18T16:41:27.939Z,11.02
2022-10-18T16:43:54.586Z,10.57
2022-10-18T16:46:23.947Z,10.37
2022-10-18T16:48:51.370Z,10.66
2022-10-18T16:51:18.216Z,10.45
2022-10-18T16:53:45.199Z,10.37
2022-10-18T16:56:17.841Z,10.24
2022-10-18T16:58:45.481Z,10.21
2022-10-18T17:01:17.890Z,10.19
2022-10-18T17:03:45.072Z,10.12
2022-10-18T17:06:17.669Z,9.62
2022-10-18T17:08:45.121Z,9.91
2022-10-18T17:11:13.582Z,9.76
2022-10-18T17:13:40.944Z,9.51
2022-10-18T17:16:18.360Z,9.44
2022-10-18T17:18:45.012Z,9.09
2022-10-18T17:21:11.612Z,9.13
2022-10-18T17:23:38.981Z,9.16
2022-10-18T17:26:26.165Z,8.83
2022-10-18T17:28:59.049Z,8.86
2022-10-18T17:31:25.763Z,8.72
2022-10-18T17:33:54.659Z,8.58
2022-10-18T17:36:22.061Z,8.66
2022-10-18T17:38:53.027Z,8.49
2022-10-18T17:41:20.348Z,8.54
2022-10-18T17:43:48.293Z,8.64
2022-10-18T17:46:16.236Z,8.75
2022-10-18T17:48:42.899Z,8.43
2022-10-18T17:51:11.880Z,8.44
2022-10-18T17:53:39.076Z,8.16
2022-10-18T17:56:07.359Z,7.84
2022-10-18T17:58:34.643Z,7.98
2022-10-18T18:01:15.958Z,7.99
2022-10-18T18:03:43.458Z,7.79
2022-10-18T18:06:20.608Z,7.76
2022-10-18T18:08:48.593Z,7.59
2022-10-18T18:11:16.172Z,7.58
2022-10-18T18:13:43.054Z,7.48
2022-10-18T18:16:16.056Z,7.97
2022-10-18T18:18:43.903Z,7.62
2022-10-18T18:21:11.038Z,7.90
2022-10-18T18:23:37.925Z,7.65
2022-10-18T18:26:04.931Z,7.49
2022-10-18T18:28:31.546Z,7.17
2022-10-18T18:30:58.171Z,6.90
2022-10-18T18:33:24.818Z,6.90
2022-10-18T18:35:58.618Z,7.06
2022-10-18T18:38:26.121Z,6.95
2022-10-18T18:41:04.197Z,6.84
2022-10-18T18:43:30.935Z,6.76
2022-10-18T18:45:57.569Z,6.63
2022-10-18T18:48:24.553Z,6.60
2022-10-18T18:50:52.323Z,6.58
2022-10-18T18:53:19.184Z,6.55
2022-10-18T18:55:46.155Z,6.69
2022-10-18T18:58:12.894Z,6.56
2022-10-18T19:00:43.607Z,6.45
2022-10-18T19:03:11.532Z,6.36
2022-10-18T19:05:38.228Z,6.02
2022-10-18T19:08:05.929Z,6.08
2022-10-18T19:10:32.890Z,6.10
2022-10-18T19:12:59.581Z,6.45
2022-10-18T19:15:26.265Z,5.91
2022-10-18T19:17:52.850Z,6.17
2022-10-18T19:20:19.635Z,6.07
2022-10-18T19:22:46.280Z,5.59
2022-10-18T19:25:13.212Z,5.94
2022-10-18T19:27:40.059Z,5.79
2022-10-18T19:30:09.612Z,5.65
2022-10-18T19:32:36.329Z,5.69
2022-10-18T19:35:03.518Z,5.90
2022-10-18T19:37:30.377Z,5.77
2022-10-18T19:39:58.545Z,5.54
2022-10-18T19:42:30.341Z,5.58
2022-10-18T19:44:57.966Z,5.43
2022-10-18T19:47:24.555Z,5.53
2022-10-18T19:49:52.782Z,5.26
2022-10-18T19:52:19.390Z,5.59
2022-10-18T19:54:48.723Z,5.52
2022-10-18T19:57:15.449Z,5.39
2022-10-18T19:59:42.046Z,5.53
2022-10-18T20:02:14.106Z,5.65
2022-10-18T20:04:40.964Z,5.38
2022-10-18T20:07:07.554Z,5.35
2022-10-18T20:09:34.412Z,5.23
2022-10-18T20:12:01.147Z,5.33
2022-10-18T20:14:27.892Z,5.23
2022-10-18T20:16:55.004Z,5.15
2022-10-18T20:19:21.852Z,4.78
2022-10-18T20:21:48.501Z,4.87
2022-10-18T20:24:15.118Z,4.87
2022-10-18T20:26:43.552Z,4.84
2022-10-18T20:29:10.442Z,5.30
2022-10-18T20:31:39.063Z,5.02
2022-10-18T20:34:08.951Z,5.10
2022-10-18T20:36:35.608Z,4.83
2022-10-18T20:39:04.363Z,4.83
2022-10-18T20:41:36.478Z,4.76
2022-10-18T20:44:07.090Z,4.93
2022-10-18T20:46:36.654Z,4.93
2022-10-18T20:49:04.530Z,4.85
2022-10-18T20:51:33.450Z,4.80
2022-10-18T20:56:34.330Z,4.72
2022-10-18T20:59:01.772Z,4.85
2022-10-18T21:01:33.452Z,4.49
2022-10-18T21:04:01.993Z,4.61
2022-10-18T21:06:42.862Z,4.44
2022-10-18T21:09:15.847Z,4.53
2022-10-18T21:11:45.022Z,4.50
2022-10-18T21:14:17.641Z,4.76
2022-10-18T21:16:45.408Z,4.66
2022-10-18T21:19:13.582Z,4.76
2022-10-18T21:21:42.333Z,4.50
2022-10-18T21:24:08.991Z,4.47
2022-10-18T21:26:36.500Z,4.32
2022-10-18T21:29:04.907Z,4.43
2022-10-18T21:31:34.942Z,4.39
2022-10-18T21:34:02.587Z,4.38
2022-10-18T21:36:35.193Z,4.17
2022-10-18T21:39:07.728Z,4.28
2022-10-18T21:41:34.779Z,4.23
2022-10-18T21:44:04.507Z,3.91
2022-10-18T21:46:33.536Z,3.92
2022-10-18T21:49:00.176Z,4.10
2022-10-18T21:51:28.120Z,4.13
2022-10-18T21:53:56.960Z,4.16
2022-10-18T21:56:29.507Z,4.27
2022-10-18T21:58:57.229Z,4.23
2022-10-18T22:01:25.093Z,4.06
2022-10-18T22:03:53.631Z,4.34
2022-10-18T22:06:21.438Z,4.09
2022-10-18T22:08:56.121Z,4.25
2022-10-18T22:11:34.347Z,4.41
2022-10-18T22:14:01.055Z,4.35
2022-10-18T22:16:28.132Z,4.38
2022-10-18T22:18:58.384Z,4.25
2022-10-18T22:21:25.109Z,4.39
2022-10-18T22:23:54.099Z,4.39
2022-10-18T22:26:26.528Z,4.12
2022-10-18T22:28:58.669Z,4.56
2022-10-18T22:31:28.348Z,4.31
2022-10-18T22:33:57.393Z,4.11
2022-10-18T22:36:24.704Z,3.98
2022-10-18T22:38:51.509Z,3.78
2022-10-18T22:41:18.622Z,3.82
2022-10-18T22:43:47.624Z,3.77
2022-10-18T22:46:15.525Z,3.51
2022-10-18T22:48:43.363Z,3.68
2022-10-18T22:51:10.576Z,3.53
2022-10-18T22:53:39.002Z,3.51
2022-10-18T22:56:06.005Z,3.14
2022-10-18T22:58:33.045Z,3.42
2022-10-18T23:01:11.035Z,3.71
2022-10-18T23:03:38.329Z,3.75
2022-10-18T23:06:06.348Z,3.71
2022-10-18T23:08:33.261Z,3.32
2022-10-18T23:11:00.401Z,3.70
2022-10-18T23:13:27.773Z,3.83
2022-10-18T23:16:04.301Z,3.64
2022-10-18T23:18:32.962Z,3.62
2022-10-18T23:21:04.583Z,3.53
2022-10-18T23:23:35.430Z,3.36
2022-10-18T23:26:04.480Z,3.35
2022-10-18T23:28:34.748Z,2.68
2022-10-18T23:31:19.295Z,3.34
2022-10-18T23:33:51.346Z,3.32
2022-10-18T23:36:18.294Z,3.10
2022-10-18T23:38:45.518Z,3.26
2022-10-18T23:41:14.007Z,3.14
2022-10-18T23:43:41.518Z,3.15
2022-10-18T23:46:09.126Z,3.05
2022-10-18T23:48:36.137Z,3.21
2022-10-18T23:51:03.522Z,3.30
2022-10-18T23:53:30.757Z,3.10
2022-10-18T23:56:02.465Z,3.38
2022-10-18T23:58:30.916Z,3.71
